^^
TXWeather Station Historical Data
Daily Summary for February 22, 2022 Units:  English    Metric   Both
Daily Weekly Monthly Yearly Custom
  High: Low: Average:
Temperature: 81.0 °F 62.0 °F 74 °F
Dew Point: 71.0 °F 50.0 °F 66.5 °F
Humidity: 86% 66% 78%
Wind Speed: 26mph 1mph 10.9mph
Wind Gust: 28mph - -
Wind- - South
Pressure: 30.1 in 29.9 in -
Precipitation: 0.000 in    
Historical Graphs
 
 
Tabular Data for February 22, 2022
Time Temperature Dew Point Pressure Wind Wind Speed Wind Gust Humidity Rainfall Rate (Hourly) solar
00:04 73.0 °F 68.0 °F 29.9 in South 14 mph 18 mph 83% 0.000 in 0.00 W/m2
00:09 73.0 °F 68.0 °F 29.9 in South 19 mph 19 mph 83% 0.000 in 0.00 W/m2
00:14 73.0 °F 68.0 °F 29.9 in South 20 mph 20 mph 83% 0.000 in 0.00 W/m2
00:19 73.0 °F 68.0 °F 29.9 in South 14 mph 15 mph 83% 0.000 in 0.00 W/m2
00:24 73.0 °F 68.0 °F 29.9 in SSE 15 mph 16 mph 83% 0.000 in 0.00 W/m2
00:29 73.0 °F 68.0 °F 29.9 in South 13 mph 15 mph 83% 0.000 in 0.00 W/m2
00:34 73.0 °F 68.0 °F 29.9 in South 23 mph 23 mph 82% 0.000 in 0.00 W/m2
00:39 73.0 °F 68.0 °F 29.9 in South 12 mph 23 mph 82% 0.000 in 0.00 W/m2
00:44 73.0 °F 68.0 °F 29.9 in SSE 18 mph 19 mph 82% 0.000 in 0.00 W/m2
00:49 73.0 °F 68.0 °F 29.9 in South 20 mph 20 mph 82% 0.000 in 0.00 W/m2
00:54 74.0 °F 68.0 °F 29.9 in South 15 mph 24 mph 82% 0.000 in 0.00 W/m2
00:59 74.0 °F 68.0 °F 29.9 in SSE 16 mph 24 mph 81% 0.000 in 0.00 W/m2
01:04 74.0 °F 68.0 °F 29.9 in SSE 21 mph 21 mph 81% 0.000 in 0.00 W/m2
01:09 74.0 °F 67.0 °F 29.9 in South 18 mph 26 mph 80% 0.000 in 0.00 W/m2
01:14 74.0 °F 67.0 °F 29.9 in South 21 mph 28 mph 80% 0.000 in 0.00 W/m2
01:19 74.0 °F 67.0 °F 29.9 in South 19 mph 24 mph 79% 0.000 in 0.00 W/m2
01:24 74.0 °F 67.0 °F 29.9 in South 16 mph 22 mph 79% 0.000 in 0.00 W/m2
01:29 74.0 °F 67.0 °F 29.9 in South 26 mph 26 mph 79% 0.000 in 0.00 W/m2
01:34 74.0 °F 67.0 °F 29.9 in South 19 mph 26 mph 79% 0.000 in 0.00 W/m2
01:39 74.0 °F 66.0 °F 29.9 in South 22 mph 23 mph 78% 0.000 in 0.00 W/m2
01:44 74.0 °F 66.0 °F 29.9 in South 24 mph 24 mph 78% 0.000 in 0.00 W/m2
01:49 74.0 °F 66.0 °F 29.9 in SSE 22 mph 22 mph 78% 0.000 in 0.00 W/m2
01:54 74.0 °F 67.0 °F 29.9 in SSE 19 mph 22 mph 79% 0.000 in 0.00 W/m2
01:59 73.0 °F 67.0 °F 29.9 in South 20 mph 26 mph 79% 0.000 in 0.00 W/m2
02:04 73.0 °F 67.0 °F 29.9 in South 17 mph 17 mph 79% 0.000 in 0.00 W/m2
02:09 73.0 °F 66.0 °F 29.9 in South 17 mph 20 mph 79% 0.000 in 0.00 W/m2
02:14 73.0 °F 66.0 °F 29.9 in South 19 mph 24 mph 79% 0.000 in 0.00 W/m2
02:19 73.0 °F 66.0 °F 29.9 in SSE 18 mph 24 mph 79% 0.000 in 0.00 W/m2
02:24 73.0 °F 67.0 °F 29.9 in South 14 mph 17 mph 80% 0.000 in 0.00 W/m2
02:29 73.0 °F 67.0 °F 29.9 in South 21 mph 23 mph 80% 0.000 in 0.00 W/m2
02:34 73.0 °F 66.0 °F 29.9 in South 22 mph 22 mph 80% 0.000 in 0.00 W/m2
02:39 73.0 °F 66.0 °F 29.9 in South 19 mph 22 mph 80% 0.000 in 0.00 W/m2
02:44 73.0 °F 66.0 °F 29.9 in SSE 21 mph 21 mph 80% 0.000 in 0.00 W/m2
02:49 73.0 °F 66.0 °F 29.9 in South 14 mph 21 mph 80% 0.000 in 0.00 W/m2
02:54 73.0 °F 66.0 °F 29.9 in South 15 mph 16 mph 80% 0.000 in 0.00 W/m2
02:59 73.0 °F 66.0 °F 29.9 in SSE 14 mph 21 mph 80% 0.000 in 0.00 W/m2
03:04 73.0 °F 66.0 °F 29.9 in South 11 mph 11 mph 80% 0.000 in 0.00 W/m2
03:09 73.0 °F 66.0 °F 29.9 in SSE 15 mph 15 mph 80% 0.000 in 0.00 W/m2
03:14 73.0 °F 66.0 °F 29.9 in SSE 20 mph 20 mph 80% 0.000 in 0.00 W/m2
03:19 73.0 °F 66.0 °F 29.9 in SSE 23 mph 23 mph 80% 0.000 in 0.00 W/m2
03:24 72.0 °F 66.0 °F 29.9 in South 16 mph 23 mph 80% 0.000 in 0.00 W/m2
03:29 72.0 °F 66.0 °F 29.9 in SSE 19 mph 24 mph 80% 0.000 in 0.00 W/m2
03:34 72.0 °F 66.0 °F 29.9 in South 12 mph 17 mph 81% 0.000 in 0.00 W/m2
03:39 72.0 °F 66.0 °F 29.9 in South 12 mph 17 mph 81% 0.000 in 0.00 W/m2
03:44 72.0 °F 66.0 °F 29.9 in South 13 mph 17 mph 81% 0.000 in 0.00 W/m2
03:49 72.0 °F 66.0 °F 29.9 in South 18 mph 20 mph 81% 0.000 in 0.00 W/m2
03:54 72.0 °F 66.0 °F 29.9 in South 18 mph 18 mph 81% 0.000 in 0.00 W/m2
03:59 72.0 °F 66.0 °F 29.9 in South 20 mph 20 mph 81% 0.000 in 0.00 W/m2
04:04 72.0 °F 66.0 °F 29.9 in South 15 mph 15 mph 81% 0.000 in 0.00 W/m2
04:09 72.0 °F 66.0 °F 29.9 in South 18 mph 18 mph 80% 0.000 in 0.00 W/m2
04:14 72.0 °F 66.0 °F 29.9 in South 15 mph 18 mph 80% 0.000 in 0.00 W/m2
04:19 72.0 °F 66.0 °F 29.9 in South 19 mph 19 mph 80% 0.000 in 0.00 W/m2
04:24 72.0 °F 66.0 °F 29.9 in South 15 mph 15 mph 80% 0.000 in 0.00 W/m2
04:29 72.0 °F 66.0 °F 29.9 in South 16 mph 18 mph 80% 0.000 in 0.00 W/m2
04:34 72.0 °F 66.0 °F 29.9 in South 15 mph 18 mph 80% 0.000 in 0.00 W/m2
04:39 72.0 °F 66.0 °F 29.9 in South 23 mph 23 mph 80% 0.000 in 0.00 W/m2
04:44 72.0 °F 66.0 °F 29.9 in South 14 mph 15 mph 80% 0.000 in 0.00 W/m2
04:49 72.0 °F 66.0 °F 29.9 in South 13 mph 14 mph 80% 0.000 in 0.00 W/m2
04:54 72.0 °F 66.0 °F 29.9 in South 14 mph 16 mph 80% 0.000 in 0.00 W/m2
04:59 72.0 °F 66.0 °F 29.9 in SSE 16 mph 17 mph 80% 0.000 in 0.00 W/m2
05:04 72.0 °F 66.0 °F 29.9 in South 17 mph 17 mph 80% 0.000 in 0.00 W/m2
05:09 72.0 °F 66.0 °F 30.0 in South 14 mph 17 mph 81% 0.000 in 0.00 W/m2
05:14 72.0 °F 66.0 °F 30.0 in South 14 mph 14 mph 81% 0.000 in 0.00 W/m2
05:19 72.0 °F 66.0 °F 30.0 in South 11 mph 16 mph 81% 0.000 in 0.00 W/m2
05:24 72.0 °F 66.0 °F 30.0 in South 11 mph 16 mph 81% 0.000 in 0.00 W/m2
05:29 72.0 °F 66.0 °F 30.0 in South 11 mph 13 mph 81% 0.000 in 0.00 W/m2
05:34 72.0 °F 66.0 °F 30.0 in South 12 mph 13 mph 81% 0.000 in 0.00 W/m2
05:39 72.0 °F 66.0 °F 30.0 in South 11 mph 12 mph 81% 0.000 in 0.00 W/m2
05:44 72.0 °F 66.0 °F 30.0 in South 10 mph 12 mph 81% 0.000 in 0.00 W/m2
05:49 72.0 °F 66.0 °F 30.0 in SSE 20 mph 20 mph 81% 0.000 in 0.00 W/m2
05:54 72.0 °F 66.0 °F 30.0 in South 11 mph 20 mph 81% 0.000 in 0.00 W/m2
05:59 72.0 °F 66.0 °F 30.0 in South 11 mph 11 mph 81% 0.000 in 0.00 W/m2
06:04 71.0 °F 65.0 °F 30.0 in South 14 mph 15 mph 81% 0.000 in 0.00 W/m2
06:09 71.0 °F 65.0 °F 30.0 in South 12 mph 15 mph 81% 0.000 in 0.00 W/m2
06:14 72.0 °F 66.0 °F 30.0 in South 10 mph 11 mph 81% 0.000 in 0.00 W/m2
06:19 72.0 °F 66.0 °F 30.0 in South 7 mph 11 mph 81% 0.000 in 0.00 W/m2
06:24 71.0 °F 65.0 °F 30.0 in South 7 mph 7 mph 81% 0.000 in 0.00 W/m2
06:29 71.0 °F 65.0 °F 30.0 in South 8 mph 10 mph 81% 0.000 in 0.00 W/m2
06:34 71.0 °F 65.0 °F 30.0 in South 7 mph 7 mph 81% 0.000 in 0.00 W/m2
06:39 71.0 °F 66.0 °F 30.0 in South 8 mph 9 mph 82% 0.000 in 0.00 W/m2
06:44 71.0 °F 66.0 °F 30.0 in South 9 mph 9 mph 82% 0.000 in 0.00 W/m2
06:49 71.0 °F 66.0 °F 30.0 in South 11 mph 11 mph 82% 0.000 in 0.00 W/m2
06:54 71.0 °F 66.0 °F 30.0 in South 11 mph 13 mph 82% 0.000 in 0.00 W/m2
06:59 71.0 °F 66.0 °F 30.0 in South 12 mph 12 mph 82% 0.000 in 0.00 W/m2
07:04 71.0 °F 66.0 °F 30.0 in South 12 mph 12 mph 82% 0.000 in 0.00 W/m2
07:09 71.0 °F 66.0 °F 30.0 in South 12 mph 13 mph 82% 0.000 in 5.00 W/m2
07:14 71.0 °F 66.0 °F 30.0 in South 7 mph 12 mph 82% 0.000 in 7.00 W/m2
07:19 71.0 °F 66.0 °F 30.0 in South 8 mph 10 mph 82% 0.000 in 12.00 W/m2
07:24 71.0 °F 66.0 °F 30.0 in South 8 mph 10 mph 83% 0.000 in 19.00 W/m2
07:29 71.0 °F 66.0 °F 30.0 in South 9 mph 9 mph 83% 0.000 in 19.00 W/m2
07:34 71.0 °F 66.0 °F 30.0 in South 8 mph 9 mph 83% 0.000 in 25.00 W/m2
07:39 71.0 °F 66.0 °F 30.0 in South 11 mph 14 mph 83% 0.000 in 28.00 W/m2
07:44 71.0 °F 66.0 °F 30.0 in South 9 mph 9 mph 83% 0.000 in 28.00 W/m2
07:49 71.0 °F 66.0 °F 30.0 in South 9 mph 9 mph 83% 0.000 in 33.00 W/m2
07:54 71.0 °F 66.0 °F 30.0 in SSE 12 mph 12 mph 83% 0.000 in 33.00 W/m2
07:59 71.0 °F 66.0 °F 30.0 in South 10 mph 12 mph 83% 0.000 in 28.00 W/m2
08:04 71.0 °F 66.0 °F 30.0 in South 5 mph 10 mph 83% 0.000 in 33.00 W/m2
08:09 71.0 °F 66.0 °F 30.0 in South 11 mph 11 mph 83% 0.000 in 47.00 W/m2
08:14 71.0 °F 66.0 °F 30.0 in South 11 mph 12 mph 83% 0.000 in 76.00 W/m2
08:19 71.0 °F 66.0 °F 30.0 in South 10 mph 12 mph 83% 0.000 in 63.00 W/m2
08:24 72.0 °F 66.0 °F 30.0 in South 8 mph 9 mph 83% 0.000 in 107.00 W/m2
08:29 72.0 °F 66.0 °F 30.0 in South 8 mph 9 mph 83% 0.000 in 142.00 W/m2
08:34 72.0 °F 67.0 °F 30.0 in SSE 10 mph 10 mph 83% 0.000 in 199.00 W/m2
08:39 72.0 °F 67.0 °F 30.0 in SSE 9 mph 11 mph 83% 0.000 in 251.00 W/m2
08:44 73.0 °F 67.0 °F 30.0 in SSE 11 mph 13 mph 83% 0.000 in 265.00 W/m2
08:49 73.0 °F 67.0 °F 30.0 in South 11 mph 12 mph 82% 0.000 in 260.00 W/m2
08:54 73.0 °F 67.0 °F 30.0 in South 10 mph 10 mph 82% 0.000 in 135.00 W/m2
08:59 73.0 °F 67.0 °F 30.0 in SSE 14 mph 14 mph 81% 0.000 in 302.00 W/m2
09:04 74.0 °F 67.0 °F 30.0 in SSE 12 mph 15 mph 81% 0.000 in 171.00 W/m2
09:09 74.0 °F 67.0 °F 30.0 in South 11 mph 13 mph 80% 0.000 in 243.00 W/m2
09:14 74.0 °F 67.0 °F 30.0 in South 17 mph 17 mph 79% 0.000 in 230.00 W/m2
09:19 74.0 °F 67.0 °F 30.0 in South 10 mph 14 mph 79% 0.000 in 269.00 W/m2
09:24 74.0 °F 67.0 °F 30.0 in South 8 mph 11 mph 78% 0.000 in 199.00 W/m2
09:29 75.0 °F 67.0 °F 30.0 in SSE 11 mph 13 mph 78% 0.000 in 255.00 W/m2
09:34 75.0 °F 67.0 °F 30.0 in SSE 17 mph 17 mph 78% 0.000 in 257.00 W/m2
09:39 75.0 °F 67.0 °F 30.1 in South 10 mph 14 mph 77% 0.000 in 311.00 W/m2
09:44 75.0 °F 67.0 °F 30.1 in South 11 mph 14 mph 77% 0.000 in 260.00 W/m2
09:49 75.0 °F 67.0 °F 30.1 in South 12 mph 12 mph 76% 0.000 in 244.00 W/m2
09:54 75.0 °F 67.0 °F 30.1 in SSE 13 mph 13 mph 76% 0.000 in 255.00 W/m2
09:59 75.0 °F 67.0 °F 30.1 in SSE 13 mph 13 mph 76% 0.000 in 297.00 W/m2
10:04 75.0 °F 67.0 °F 30.1 in South 16 mph 16 mph 76% 0.000 in 325.00 W/m2
10:09 76.0 °F 67.0 °F 30.1 in South 15 mph 17 mph 75% 0.000 in 343.00 W/m2
10:14 76.0 °F 67.0 °F 30.1 in South 14 mph 17 mph 75% 0.000 in 309.00 W/m2
10:19 76.0 °F 67.0 °F 30.1 in SSE 16 mph 16 mph 73% 0.000 in 227.00 W/m2
10:24 76.0 °F 67.0 °F 30.1 in South 11 mph 16 mph 73% 0.000 in 251.00 W/m2
10:29 76.0 °F 67.0 °F 30.1 in South 20 mph 20 mph 73% 0.000 in 237.00 W/m2
10:34 76.0 °F 67.0 °F 30.1 in South 14 mph 20 mph 73% 0.000 in 338.00 W/m2
10:39 77.0 °F 67.0 °F 30.0 in South 13 mph 14 mph 73% 0.000 in 338.00 W/m2
10:44 77.0 °F 67.0 °F 30.0 in South 12 mph 13 mph 73% 0.000 in 438.00 W/m2
10:49 77.0 °F 68.0 °F 30.0 in SSE 14 mph 16 mph 72% 0.000 in 406.00 W/m2
10:54 77.0 °F 68.0 °F 30.0 in South 14 mph 15 mph 72% 0.000 in 301.00 W/m2
10:59 77.0 °F 67.0 °F 30.1 in South 12 mph 14 mph 70% 0.000 in 160.00 W/m2
11:04 77.0 °F 67.0 °F 30.1 in South 12 mph 15 mph 71% 0.000 in 185.00 W/m2
11:09 77.0 °F 67.0 °F 30.0 in South 15 mph 15 mph 71% 0.000 in 149.00 W/m2
11:14 77.0 °F 67.0 °F 30.0 in South 12 mph 12 mph 71% 0.000 in 153.00 W/m2
11:19 77.0 °F 67.0 °F 30.0 in South 13 mph 13 mph 72% 0.000 in 167.00 W/m2
11:24 77.0 °F 67.0 °F 30.0 in South 13 mph 15 mph 72% 0.000 in 142.00 W/m2
11:29 77.0 °F 67.0 °F 30.0 in South 7 mph 13 mph 72% 0.000 in 148.00 W/m2
11:34 76.0 °F 67.0 °F 30.0 in South 9 mph 11 mph 73% 0.000 in 151.00 W/m2
11:39 76.0 °F 67.0 °F 30.0 in South 10 mph 11 mph 72% 0.000 in 151.00 W/m2
11:44 77.0 °F 67.0 °F 30.0 in South 7 mph 9 mph 73% 0.000 in 139.00 W/m2
11:49 77.0 °F 67.0 °F 30.0 in South 9 mph 9 mph 73% 0.000 in 128.00 W/m2
11:54 77.0 °F 67.0 °F 30.0 in SSE 10 mph 12 mph 73% 0.000 in 116.00 W/m2
11:59 77.0 °F 68.0 °F 30.0 in South 8 mph 12 mph 74% 0.000 in 84.00 W/m2
12:04 77.0 °F 68.0 °F 30.0 in SSE 9 mph 10 mph 74% 0.000 in 90.00 W/m2
12:09 76.0 °F 68.0 °F 30.0 in South 8 mph 9 mph 75% 0.000 in 141.00 W/m2
12:14 76.0 °F 68.0 °F 30.0 in SSE 7 mph 7 mph 75% 0.000 in 141.00 W/m2
12:19 76.0 °F 68.0 °F 30.0 in SSE 14 mph 14 mph 75% 0.000 in 121.00 W/m2
12:24 76.0 °F 68.0 °F 30.0 in SSE 10 mph 10 mph 76% 0.000 in 114.00 W/m2
12:29 76.0 °F 68.0 °F 30.0 in South 10 mph 10 mph 77% 0.000 in 156.00 W/m2
12:34 76.0 °F 68.0 °F 30.0 in South 9 mph 10 mph 78% 0.000 in 241.00 W/m2
12:39 76.0 °F 69.0 °F 30.0 in South 7 mph 9 mph 79% 0.000 in 279.00 W/m2
12:44 76.0 °F 69.0 °F 30.0 in South 5 mph 6 mph 79% 0.000 in 283.00 W/m2
12:49 76.0 °F 69.0 °F 30.0 in SSE 8 mph 8 mph 79% 0.000 in 401.00 W/m2
12:54 77.0 °F 70.0 °F 30.0 in SSE 8 mph 9 mph 81% 0.000 in 923.00 W/m2
12:59 77.0 °F 70.0 °F 30.0 in SSE 7 mph 9 mph 80% 0.000 in 872.00 W/m2
13:04 78.0 °F 70.0 °F 30.0 in SSE 10 mph 11 mph 78% 0.000 in 413.00 W/m2
13:09 78.0 °F 70.0 °F 30.0 in SSE 12 mph 12 mph 77% 0.000 in 330.00 W/m2
13:14 79.0 °F 70.0 °F 30.0 in SSE 9 mph 12 mph 75% 0.000 in 724.00 W/m2
13:19 80.0 °F 71.0 °F 30.0 in SSE 9 mph 10 mph 74% 0.000 in 724.00 W/m2
13:24 80.0 °F 71.0 °F 30.0 in South 8 mph 10 mph 73% 0.000 in 777.00 W/m2
13:29 80.0 °F 70.0 °F 30.0 in South 13 mph 13 mph 71% 0.000 in 828.00 W/m2
13:34 80.0 °F 70.0 °F 30.0 in South 8 mph 13 mph 71% 0.000 in 819.00 W/m2
13:39 80.0 °F 70.0 °F 30.0 in South 10 mph 10 mph 71% 0.000 in 339.00 W/m2
13:44 81.0 °F 71.0 °F 30.0 in South 10 mph 10 mph 71% 0.000 in 330.00 W/m2
13:49 81.0 °F 70.0 °F 30.0 in SSE 16 mph 16 mph 70% 0.000 in 796.00 W/m2
13:54 81.0 °F 70.0 °F 30.0 in South 13 mph 14 mph 69% 0.000 in 752.00 W/m2
13:59 81.0 °F 70.0 °F 30.0 in South 14 mph 15 mph 69% 0.000 in 765.00 W/m2
14:04 81.0 °F 69.0 °F 30.0 in South 12 mph 14 mph 68% 0.000 in 747.00 W/m2
14:09 81.0 °F 69.0 °F 30.0 in SSE 15 mph 15 mph 67% 0.000 in 267.00 W/m2
14:14 80.0 °F 69.0 °F 30.0 in SSE 14 mph 16 mph 68% 0.000 in 243.00 W/m2
14:19 80.0 °F 69.0 °F 30.0 in SSE 19 mph 20 mph 68% 0.000 in 169.00 W/m2
14:24 80.0 °F 69.0 °F 30.0 in SSE 15 mph 20 mph 69% 0.000 in 250.00 W/m2
14:29 80.0 °F 69.0 °F 30.0 in SSE 14 mph 15 mph 70% 0.000 in 784.00 W/m2
14:34 81.0 °F 70.0 °F 30.0 in SSE 15 mph 16 mph 70% 0.000 in 714.00 W/m2
14:39 81.0 °F 69.0 °F 30.0 in South 21 mph 22 mph 68% 0.000 in 643.00 W/m2
14:44 81.0 °F 69.0 °F 30.0 in SSE 17 mph 22 mph 68% 0.000 in 613.00 W/m2
14:49 81.0 °F 70.0 °F 30.0 in South 17 mph 17 mph 68% 0.000 in 608.00 W/m2
14:54 81.0 °F 69.0 °F 30.0 in South 16 mph 17 mph 67% 0.000 in 677.00 W/m2
14:59 81.0 °F 69.0 °F 30.0 in SSE 16 mph 16 mph 67% 0.000 in 288.00 W/m2
15:04 81.0 °F 69.0 °F 30.0 in South 17 mph 18 mph 67% 0.000 in 287.00 W/m2
15:09 80.0 °F 69.0 °F 30.0 in SSE 15 mph 18 mph 68% 0.000 in 239.00 W/m2
15:14 80.0 °F 68.0 °F 30.0 in South 10 mph 16 mph 68% 0.000 in 113.00 W/m2
15:19 80.0 °F 69.0 °F 30.0 in South 9 mph 10 mph 69% 0.000 in 151.00 W/m2
15:24 80.0 °F 69.0 °F 30.0 in SSE 16 mph 17 mph 70% 0.000 in 281.00 W/m2
15:29 79.0 °F 69.0 °F 30.0 in SSE 11 mph 16 mph 70% 0.000 in 281.00 W/m2
15:34 79.0 °F 69.0 °F 30.0 in South 13 mph 13 mph 70% 0.000 in 156.00 W/m2
15:39 79.0 °F 69.0 °F 30.0 in South 10 mph 13 mph 70% 0.000 in 121.00 W/m2
15:44 79.0 °F 69.0 °F 30.0 in SSE 11 mph 11 mph 71% 0.000 in 93.00 W/m2
15:49 79.0 °F 69.0 °F 30.0 in South 10 mph 11 mph 72% 0.000 in 121.00 W/m2
15:54 78.0 °F 69.0 °F 30.0 in South 10 mph 12 mph 72% 0.000 in 193.00 W/m2
15:59 78.0 °F 69.0 °F 30.0 in SSE 9 mph 12 mph 72% 0.000 in 188.00 W/m2
16:04 78.0 °F 69.0 °F 30.0 in South 12 mph 16 mph 72% 0.000 in 155.00 W/m2
16:09 78.0 °F 69.0 °F 30.0 in South 10 mph 12 mph 72% 0.000 in 162.00 W/m2
16:14 78.0 °F 69.0 °F 30.0 in SSE 11 mph 11 mph 72% 0.000 in 153.00 W/m2
16:19 78.0 °F 69.0 °F 30.0 in SSE 10 mph 13 mph 72% 0.000 in 141.00 W/m2
16:24 78.0 °F 69.0 °F 30.0 in SSE 10 mph 13 mph 72% 0.000 in 113.00 W/m2
16:29 78.0 °F 69.0 °F 30.0 in SSE 9 mph 11 mph 72% 0.000 in 102.00 W/m2
16:34 78.0 °F 69.0 °F 30.0 in SSE 9 mph 10 mph 73% 0.000 in 84.00 W/m2
16:39 78.0 °F 69.0 °F 30.0 in South 6 mph 9 mph 74% 0.000 in 63.00 W/m2
16:44 78.0 °F 69.0 °F 30.0 in SSE 7 mph 9 mph 75% 0.000 in 76.00 W/m2
16:49 78.0 °F 69.0 °F 30.0 in SSE 6 mph 6 mph 76% 0.000 in 105.00 W/m2
16:54 78.0 °F 69.0 °F 30.0 in South 6 mph 6 mph 76% 0.000 in 105.00 W/m2
16:59 77.0 °F 69.0 °F 30.0 in SSE 5 mph 5 mph 76% 0.000 in 91.00 W/m2
17:04 77.0 °F 69.0 °F 30.0 in SSE 5 mph 5 mph 76% 0.000 in 70.00 W/m2
17:09 77.0 °F 69.0 °F 30.0 in SE 4 mph 5 mph 77% 0.000 in 91.00 W/m2
17:14 77.0 °F 69.0 °F 30.0 in SE 4 mph 5 mph 77% 0.000 in 88.00 W/m2
17:19 77.0 °F 69.0 °F 30.0 in SSE 6 mph 8 mph 78% 0.000 in 90.00 W/m2
17:24 77.0 °F 69.0 °F 30.0 in SSE 7 mph 8 mph 77% 0.000 in 69.00 W/m2
17:29 77.0 °F 69.0 °F 30.0 in SSE 8 mph 9 mph 77% 0.000 in 65.00 W/m2
17:34 77.0 °F 69.0 °F 30.0 in SSE 5 mph 6 mph 78% 0.000 in 77.00 W/m2
17:39 77.0 °F 69.0 °F 30.0 in SSE 6 mph 7 mph 78% 0.000 in 86.00 W/m2
17:44 77.0 °F 69.0 °F 30.0 in SE 3 mph 7 mph 78% 0.000 in 77.00 W/m2
17:49 77.0 °F 69.0 °F 30.0 in SSE 6 mph 6 mph 78% 0.000 in 60.00 W/m2
17:54 77.0 °F 69.0 °F 30.0 in SE 5 mph 7 mph 78% 0.000 in 32.00 W/m2
17:59 77.0 °F 69.0 °F 30.0 in SE 8 mph 8 mph 78% 0.000 in 26.00 W/m2
18:04 77.0 °F 69.0 °F 30.0 in SE 9 mph 9 mph 78% 0.000 in 12.00 W/m2
18:09 76.0 °F 69.0 °F 30.0 in SSE 9 mph 10 mph 77% 0.000 in 5.00 W/m2
18:14 76.0 °F 68.0 °F 30.0 in SE 8 mph 9 mph 77% 0.000 in 5.00 W/m2
18:19 76.0 °F 68.0 °F 30.0 in SE 8 mph 9 mph 77% 0.000 in 0.00 W/m2
18:24 76.0 °F 68.0 °F 30.0 in SE 5 mph 9 mph 78% 0.000 in 0.00 W/m2
18:29 76.0 °F 68.0 °F 30.0 in SE 5 mph 7 mph 78% 0.000 in 0.00 W/m2
18:34 76.0 °F 68.0 °F 30.0 in SE 5 mph 5 mph 78% 0.000 in 0.00 W/m2
18:39 75.0 °F 68.0 °F 30.0 in SE 4 mph 4 mph 78% 0.000 in 0.00 W/m2
18:44 75.0 °F 68.0 °F 30.0 in SE 4 mph 4 mph 78% 0.000 in 0.00 W/m2
18:49 75.0 °F 68.0 °F 30.0 in SE 4 mph 5 mph 79% 0.000 in 0.00 W/m2
18:54 75.0 °F 68.0 °F 30.0 in ESE 3 mph 4 mph 79% 0.000 in 0.00 W/m2
18:59 75.0 °F 68.0 °F 30.0 in ESE 3 mph 3 mph 79% 0.000 in 0.00 W/m2
19:04 75.0 °F 68.0 °F 30.0 in SE 4 mph 4 mph 80% 0.000 in 0.00 W/m2
19:09 75.0 °F 68.0 °F 30.0 in SE 8 mph 8 mph 80% 0.000 in 0.00 W/m2
19:14 75.0 °F 68.0 °F 30.0 in SE 8 mph 8 mph 81% 0.000 in 0.00 W/m2
19:19 75.0 °F 68.0 °F 30.0 in SE 6 mph 7 mph 81% 0.000 in 0.00 W/m2
19:24 75.0 °F 68.0 °F 30.0 in SE 8 mph 8 mph 81% 0.000 in 0.00 W/m2
19:29 74.0 °F 68.0 °F 30.0 in SSE 5 mph 6 mph 81% 0.000 in 0.00 W/m2
19:34 74.0 °F 68.0 °F 30.0 in SE 8 mph 8 mph 81% 0.000 in 0.00 W/m2
19:39 74.0 °F 68.0 °F 30.0 in SE 8 mph 9 mph 82% 0.000 in 0.00 W/m2
19:44 74.0 °F 68.0 °F 30.1 in SSE 6 mph 6 mph 82% 0.000 in 0.00 W/m2
19:49 74.0 °F 68.0 °F 30.1 in SE 4 mph 6 mph 82% 0.000 in 0.00 W/m2
19:54 74.0 °F 68.0 °F 30.1 in SE 1 mph 3 mph 82% 0.000 in 0.00 W/m2
19:59 74.0 °F 68.0 °F 30.1 in SE 2 mph 2 mph 82% 0.000 in 0.00 W/m2
20:04 74.0 °F 68.0 °F 30.1 in SE 2 mph 2 mph 82% 0.000 in 0.00 W/m2
20:09 74.0 °F 68.0 °F 30.1 in SE 1 mph 1 mph 82% 0.000 in 0.00 W/m2
20:14 74.0 °F 68.0 °F 30.1 in SE 3 mph 3 mph 82% 0.000 in 0.00 W/m2
20:19 74.0 °F 68.0 °F 30.1 in SE 3 mph 3 mph 83% 0.000 in 0.00 W/m2
20:24 74.0 °F 68.0 °F 30.1 in SE 2 mph 2 mph 83% 0.000 in 0.00 W/m2
20:29 73.0 °F 68.0 °F 30.1 in SE 2 mph 2 mph 83% 0.000 in 0.00 W/m2
20:34 73.0 °F 68.0 °F 30.1 in SE 2 mph 2 mph 83% 0.000 in 0.00 W/m2
20:39 73.0 °F 68.0 °F 30.1 in SE 2 mph 2 mph 83% 0.000 in 0.00 W/m2
20:44 73.0 °F 68.0 °F 30.1 in SE 2 mph 2 mph 84% 0.000 in 0.00 W/m2
20:49 73.0 °F 68.0 °F 30.1 in SE 2 mph 2 mph 84% 0.000 in 0.00 W/m2
20:54 73.0 °F 68.0 °F 30.1 in East 2 mph 2 mph 84% 0.000 in 0.00 W/m2
20:59 73.0 °F 68.0 °F 30.1 in East 2 mph 2 mph 84% 0.000 in 0.00 W/m2
21:04 73.0 °F 68.0 °F 30.1 in East 3 mph 3 mph 84% 0.000 in 0.00 W/m2
21:09 73.0 °F 68.0 °F 30.1 in East 2 mph 3 mph 84% 0.000 in 0.00 W/m2
21:14 73.0 °F 68.0 °F 30.1 in East 2 mph 2 mph 84% 0.000 in 0.00 W/m2
21:19 73.0 °F 68.0 °F 30.1 in East 1 mph 3 mph 84% 0.000 in 0.00 W/m2
21:24 72.0 °F 67.0 °F 30.1 in East 1 mph 3 mph 84% 0.000 in 0.00 W/m2
21:29 72.0 °F 68.0 °F 30.1 in East 2 mph 2 mph 85% 0.000 in 0.00 W/m2
21:34 72.0 °F 68.0 °F 30.1 in East 1 mph 1 mph 85% 0.000 in 0.00 W/m2
21:39 72.0 °F 68.0 °F 30.1 in East 1 mph 1 mph 85% 0.000 in 0.00 W/m2
21:44 72.0 °F 67.0 °F 30.1 in East 2 mph 2 mph 85% 0.000 in 0.00 W/m2
21:49 72.0 °F 67.0 °F 30.1 in East 2 mph 2 mph 85% 0.000 in 0.00 W/m2
21:54 72.0 °F 67.0 °F 30.1 in East 1 mph 2 mph 85% 0.000 in 0.00 W/m2
21:59 72.0 °F 67.0 °F 30.1 in East 1 mph 2 mph 85% 0.000 in 0.00 W/m2
22:04 72.0 °F 67.0 °F 30.1 in East 2 mph 2 mph 85% 0.000 in 0.00 W/m2
22:09 72.0 °F 67.0 °F 30.1 in ENE 3 mph 3 mph 86% 0.000 in 0.00 W/m2
22:14 72.0 °F 67.0 °F 30.1 in NNW 10 mph 10 mph 86% 0.000 in 0.00 W/m2
22:19 70.0 °F 64.0 °F 30.1 in NNW 12 mph 12 mph 80% 0.000 in 0.00 W/m2
22:24 68.0 °F 59.0 °F 30.1 in NNW 12 mph 12 mph 74% 0.000 in 0.00 W/m2
22:29 67.0 °F 57.0 °F 30.1 in NNW 13 mph 15 mph 70% 0.000 in 0.00 W/m2
22:34 66.0 °F 55.0 °F 30.1 in NNW 13 mph 13 mph 68% 0.000 in 0.00 W/m2
22:39 66.0 °F 55.0 °F 30.1 in NW 12 mph 13 mph 68% 0.000 in 0.00 W/m2
22:44 65.0 °F 55.0 °F 30.1 in NNW 9 mph 13 mph 69% 0.000 in 0.00 W/m2
22:49 65.0 °F 55.0 °F 30.1 in NNW 10 mph 10 mph 69% 0.000 in 0.00 W/m2
22:54 65.0 °F 54.0 °F 30.1 in NNW 12 mph 12 mph 69% 0.000 in 0.00 W/m2
22:59 64.0 °F 53.0 °F 30.1 in NNW 8 mph 10 mph 68% 0.000 in 0.00 W/m2
23:04 64.0 °F 53.0 °F 30.1 in NNW 10 mph 10 mph 68% 0.000 in 0.00 W/m2
23:09 63.0 °F 53.0 °F 30.1 in NNW 8 mph 10 mph 68% 0.000 in 0.00 W/m2
23:14 63.0 °F 52.0 °F 30.1 in NNW 9 mph 9 mph 68% 0.000 in 0.00 W/m2
23:19 63.0 °F 52.0 °F 30.1 in North 9 mph 10 mph 68% 0.000 in 0.00 W/m2
23:24 63.0 °F 52.0 °F 30.1 in North 6 mph 10 mph 68% 0.000 in 0.00 W/m2
23:29 62.0 °F 52.0 °F 30.1 in NNW 9 mph 9 mph 68% 0.000 in 0.00 W/m2
23:34 62.0 °F 52.0 °F 30.1 in NNW 8 mph 9 mph 68% 0.000 in 0.00 W/m2
23:39 62.0 °F 51.0 °F 30.1 in North 8 mph 9 mph 67% 0.000 in 0.00 W/m2
23:44 62.0 °F 51.0 °F 30.1 in NNW 11 mph 11 mph 67% 0.000 in 0.00 W/m2
23:49 62.0 °F 51.0 °F 30.1 in NNW 9 mph 9 mph 67% 0.000 in 0.00 W/m2
23:54 62.0 °F 51.0 °F 30.1 in NNW 10 mph 10 mph 67% 0.000 in 0.00 W/m2
23:59 62.0 °F 50.0 °F 30.1 in NNW 9 mph 10 mph 66% 0.000 in 0.00 W/m2
Villages of Bridgestone, Spring, TX USA
Compliments of Weather Underground - 4 mb